^^
Grace C. Lehan Memorial Weather Station Historical Data
Daily Summary for June 10, 2022 Units:  Both    English   Metric
Daily Weekly Monthly Yearly
  High: Low: Average:
Temperature: 53.5 °F /  11.9 °C 29.6 °F /  -1.3 °C 40.1 °F /  4.5 °C
Dew Point: 41.4 °F /  5.2 °C 26.8 °F /  -2.9 °C 31.5 °F /  -0.3 °C
Humidity: 94.9% 43.4% 73%
Wind Speed: 8.7mph /  14km/h - 0.8mph /  1.3km/h
Wind Gust: 21mph /  33.8km/h - -
Wind- - WSW
Pressure: 29.92 in /  1013.1 hPa 29.72 in /  1006.3 hPa -
Precipitation: 0.00 in /  0 mm    
 
 
Tabular Data for June 10, 2022
Time Temperature Dew Point Pressure Wind Wind Speed Wind Gust Humidity Rainfall Rate (Hourly) solar
00:04 30.8 °F /  -0.7 °C 26.8 °F /  -2.9 °C 29.91in /  1012.8hPa Calm     85% 0.00in /  0mm 0 W/m2
00:09 30.7 °F /  -0.7 °C 26.9 °F /  -2.8 °C 29.91in /  1012.8hPa Calm     85.5% 0.00in /  0mm 0 W/m2
00:14 30.6 °F /  -0.8 °C 26.9 °F /  -2.8 °C 29.91in /  1012.8hPa Calm     86% 0.00in /  0mm 0 W/m2
00:19 30.5 °F /  -0.8 °C 26.8 °F /  -2.9 °C 29.91in /  1012.8hPa Calm     86% 0.00in /  0mm 0 W/m2
00:24 30.5 °F /  -0.8 °C 26.8 °F /  -2.9 °C 29.91in /  1012.8hPa Calm     86% 0.00in /  0mm 0 W/m2
00:29 30.5 °F /  -0.8 °C 27 °F /  -2.8 °C 29.91in /  1012.8hPa Calm     86.8% 0.00in /  0mm 0 W/m2
00:34 30.4 °F /  -0.9 °C 27 °F /  -2.8 °C 29.91in /  1012.8hPa Calm     87% 0.00in /  0mm 0 W/m2
00:39 30.4 °F /  -0.9 °C 27 °F /  -2.8 °C 29.91in /  1012.8hPa Calm     87% 0.00in /  0mm 0 W/m2
00:44 30.5 °F /  -0.8 °C 27.2 °F /  -2.7 °C 29.91in /  1012.8hPa Calm     87.4% 0.00in /  0mm 0 W/m2
00:49 30.7 °F /  -0.7 °C 27.5 °F /  -2.5 °C 29.90in /  1012.4hPa Calm     88% 0.00in /  0mm 0 W/m2
00:54 30.8 °F /  -0.7 °C 27.7 °F /  -2.4 °C 29.90in /  1012.4hPa Calm     88.2% 0.00in /  0mm 0 W/m2
00:59 31 °F /  -0.6 °C 28.1 °F /  -2.2 °C 29.90in /  1012.4hPa Calm     89% 0.00in /  0mm 0 W/m2
01:04 31.1 °F /  -0.5 °C 28.1 °F /  -2.2 °C 29.90in /  1012.4hPa Calm     88.7% 0.00in /  0mm 0 W/m2
01:09 31 °F /  -0.6 °C 27.9 °F /  -2.3 °C 29.90in /  1012.4hPa Calm     88.1% 0.00in /  0mm 0 W/m2
01:14 31 °F /  -0.6 °C 27.8 °F /  -2.3 °C 29.90in /  1012.4hPa Calm     88% 0.00in /  0mm 0 W/m2
01:19 30.8 °F /  -0.7 °C 27.7 °F /  -2.4 °C 29.90in /  1012.4hPa Calm     88% 0.00in /  0mm 0 W/m2
01:24 30.8 °F /  -0.7 °C 27.9 °F /  -2.3 °C 29.90in /  1012.4hPa Calm     88.7% 0.00in /  0mm 0 W/m2
01:29 30.9 °F /  -0.6 °C 28.1 °F /  -2.2 °C 29.89in /  1012.1hPa Calm     89% 0.00in /  0mm 0 W/m2
01:34 31 °F /  -0.6 °C 28.1 °F /  -2.2 °C 29.89in /  1012.1hPa Calm     89% 0.00in /  0mm 0 W/m2
01:39 30.9 °F /  -0.6 °C 28 °F /  -2.2 °C 29.89in /  1012.1hPa Calm     89% 0.00in /  0mm 0 W/m2
01:44 30.8 °F /  -0.7 °C 27.9 °F /  -2.3 °C 29.88in /  1011.7hPa Calm     89% 0.00in /  0mm 0 W/m2
01:49 30.7 °F /  -0.7 °C 27.8 °F /  -2.3 °C 29.88in /  1011.7hPa Calm     89% 0.00in /  0mm 0 W/m2
01:54 30.5 °F /  -0.8 °C 27.5 °F /  -2.5 °C 29.88in /  1011.7hPa Calm     88.5% 0.00in /  0mm 0 W/m2
01:59 30.3 °F /  -0.9 °C 27.2 °F /  -2.7 °C 29.88in /  1011.7hPa Calm     88% 0.00in /  0mm 0 W/m2
02:04 30.1 °F /  -1.1 °C 27 °F /  -2.8 °C 29.88in /  1011.7hPa Calm     88.1% 0.00in /  0mm 0 W/m2
02:09 29.9 °F /  -1.2 °C 27.1 °F /  -2.7 °C 29.88in /  1011.7hPa Calm     89% 0.00in /  0mm 0 W/m2
02:14 29.9 °F /  -1.2 °C 27 °F /  -2.8 °C 29.88in /  1011.7hPa Calm     89% 0.00in /  0mm 0 W/m2
02:19 29.8 °F /  -1.2 °C 27 °F /  -2.8 °C 29.87in /  1011.4hPa Calm     89% 0.00in /  0mm 0 W/m2
02:24 29.7 °F /  -1.3 °C 26.9 °F /  -2.8 °C 29.87in /  1011.4hPa Calm     89% 0.00in /  0mm 0 W/m2
02:29 29.6 °F /  -1.3 °C 26.8 °F /  -2.9 °C 29.87in /  1011.4hPa Calm     89% 0.00in /  0mm 0 W/m2
02:34 29.6 °F /  -1.3 °C 26.9 °F /  -2.8 °C 29.87in /  1011.4hPa Calm     89.7% 0.00in /  0mm 0 W/m2
02:39 29.6 °F /  -1.3 °C 27 °F /  -2.8 °C 29.88in /  1011.7hPa Calm     90% 0.00in /  0mm 0 W/m2
02:44 29.7 °F /  -1.3 °C 27.1 °F /  -2.7 °C 29.87in /  1011.4hPa Calm     90.1% 0.00in /  0mm 0 W/m2
02:49 29.8 °F /  -1.2 °C 27.5 °F /  -2.5 °C 29.86in /  1011.1hPa Calm     91% 0.00in /  0mm 0 W/m2
02:54 30 °F /  -1.1 °C 27.7 °F /  -2.4 °C 29.86in /  1011.1hPa Calm     91% 0.00in /  0mm 0 W/m2
02:59 30.3 °F /  -0.9 °C 28 °F /  -2.2 °C 29.86in /  1011.1hPa Calm     91% 0.00in /  0mm 0 W/m2
03:04 30.3 °F /  -0.9 °C 28 °F /  -2.2 °C 29.86in /  1011.1hPa Calm     91% 0.00in /  0mm 0 W/m2
03:09 30.4 °F /  -0.9 °C 28.1 °F /  -2.2 °C 29.86in /  1011.1hPa Calm     91% 0.00in /  0mm 0 W/m2
03:14 30.4 °F /  -0.9 °C 28.1 °F /  -2.2 °C 29.86in /  1011.1hPa Calm     91% 0.00in /  0mm 0 W/m2
03:19 30.4 °F /  -0.9 °C 28.1 °F /  -2.2 °C 29.86in /  1011.1hPa Calm     91% 0.00in /  0mm 0 W/m2
03:24 30.4 °F /  -0.9 °C 28.1 °F /  -2.2 °C 29.86in /  1011.1hPa Calm     91% 0.00in /  0mm 0 W/m2
03:29 30.3 °F /  -0.9 °C 28 °F /  -2.2 °C 29.86in /  1011.1hPa Calm     91% 0.00in /  0mm 0 W/m2
03:34 30.1 °F /  -1.1 °C 27.8 °F /  -2.3 °C 29.85in /  1010.7hPa Calm     91% 0.00in /  0mm 0 W/m2
03:39 30.1 °F /  -1.1 °C 27.8 °F /  -2.3 °C 29.85in /  1010.7hPa Calm     91% 0.00in /  0mm 0 W/m2
03:44 30.2 °F /  -1 °C 28 °F /  -2.2 °C 29.85in /  1010.7hPa Calm     91.5% 0.00in /  0mm 0 W/m2
03:49 30.3 °F /  -0.9 °C 28.3 °F /  -2.1 °C 29.85in /  1010.7hPa Calm     92% 0.00in /  0mm 0 W/m2
03:54 30.3 °F /  -0.9 °C 28.3 °F /  -2.1 °C 29.85in /  1010.7hPa Calm     92% 0.00in /  0mm 0 W/m2
03:59 30.3 °F /  -0.9 °C 28.1 °F /  -2.2 °C 29.85in /  1010.7hPa Calm     91.6% 0.00in /  0mm 0 W/m2
04:00 30.2 °F /  -1 °C 27.9 °F /  -2.3 °C 29.85in /  1010.7hPa Calm     91% 0.00in /  0mm 0 W/m2
04:09 30.3 °F /  -0.9 °C 28.3 °F /  -2.1 °C 29.85in /  1010.7hPa Calm     92% 0.00in /  0mm 0 W/m2
04:14 30.4 °F /  -0.9 °C 28.4 °F /  -2 °C 29.85in /  1010.7hPa Calm     92% 0.00in /  0mm 0 W/m2
04:19 30.7 °F /  -0.7 °C 28.7 °F /  -1.8 °C 29.85in /  1010.7hPa Calm     92.1% 0.00in /  0mm 0 W/m2
04:24 31 °F /  -0.6 °C 29.2 °F /  -1.6 °C 29.85in /  1010.7hPa Calm     92.8% 0.00in /  0mm 0 W/m2
04:29 31.1 °F /  -0.5 °C 29.1 °F /  -1.6 °C 29.85in /  1010.7hPa Calm     92.1% 0.00in /  0mm 0 W/m2
04:34 31.2 °F /  -0.4 °C 29.1 °F /  -1.6 °C 29.85in /  1010.7hPa Calm     92% 0.00in /  0mm 0 W/m2
04:39 31.2 °F /  -0.4 °C 29.2 °F /  -1.6 °C 29.85in /  1010.7hPa Calm     92% 0.00in /  0mm 0 W/m2
04:44 31.2 °F /  -0.4 °C 29.2 °F /  -1.6 °C 29.85in /  1010.7hPa Calm     92% 0.00in /  0mm 0 W/m2
04:49 31.2 °F /  -0.4 °C 29.2 °F /  -1.6 °C 29.85in /  1010.7hPa Calm     92% 0.00in /  0mm 0 W/m2
04:54 31.2 °F /  -0.4 °C 29.2 °F /  -1.6 °C 29.85in /  1010.7hPa Calm     92% 0.00in /  0mm 0 W/m2
04:59 31.2 °F /  -0.4 °C 29.2 °F /  -1.6 °C 29.85in /  1010.7hPa Calm     92% 0.00in /  0mm 0 W/m2
05:04 31.3 °F /  -0.4 °C 29.2 °F /  -1.6 °C 29.85in /  1010.7hPa Calm     92% 0.00in /  0mm 0 W/m2
05:09 31.4 °F /  -0.3 °C 29.6 °F /  -1.3 °C 29.85in /  1010.7hPa Calm     92.7% 0.00in /  0mm 0 W/m2
05:14 31.6 °F /  -0.2 °C 29.9 °F /  -1.2 °C 29.85in /  1010.7hPa Calm     93% 0.00in /  0mm 0 W/m2
05:19 31.8 °F /  -0.1 °C 30 °F /  -1.1 °C 29.85in /  1010.7hPa Calm     93% 0.00in /  0mm 0 W/m2
05:24 31.8 °F /  -0.1 °C 30 °F /  -1.1 °C 29.84in /  1010.4hPa Calm     93% 0.00in /  0mm 0 W/m2
05:29 31.8 °F /  -0.1 °C 30 °F /  -1.1 °C 29.84in /  1010.4hPa Calm     92.9% 0.00in /  0mm 0 W/m2
05:34 31.8 °F /  -0.1 °C 29.7 °F /  -1.3 °C 29.84in /  1010.4hPa Calm     92% 0.00in /  0mm 0 W/m2
05:39 31.7 °F /  -0.2 °C 29.7 °F /  -1.3 °C 29.84in /  1010.4hPa Calm     92% 0.00in /  0mm 0 W/m2
05:44 31.6 °F /  -0.2 °C 29.5 °F /  -1.4 °C 29.84in /  1010.4hPa Calm     92% 0.00in /  0mm 0 W/m2
05:49 31.5 °F /  -0.3 °C 29.4 °F /  -1.4 °C 29.83in /  1010hPa Calm     92% 0.00in /  0mm 0 W/m2
05:54 31.4 °F /  -0.3 °C 29.3 °F /  -1.5 °C 29.83in /  1010hPa Calm     92% 0.00in /  0mm 0 W/m2
05:59 31.3 °F /  -0.4 °C 29.2 °F /  -1.6 °C 29.83in /  1010hPa Calm     92% 0.00in /  0mm 0 W/m2
06:04 31.3 °F /  -0.4 °C 29.2 °F /  -1.6 °C 29.83in /  1010hPa Calm     92% 0.00in /  0mm 0 W/m2
06:09 31.2 °F /  -0.4 °C 29.1 °F /  -1.6 °C 29.83in /  1010hPa Calm     92% 0.00in /  0mm 0 W/m2
06:14 31.1 °F /  -0.5 °C 29.1 °F /  -1.6 °C 29.83in /  1010hPa Calm     92% 0.00in /  0mm 0 W/m2
06:19 31 °F /  -0.6 °C 29 °F /  -1.7 °C 29.83in /  1010hPa Calm     92% 0.00in /  0mm 0 W/m2
06:24 31 °F /  -0.6 °C 29 °F /  -1.7 °C 29.82in /  1009.7hPa Calm     92% 0.00in /  0mm 0 W/m2
06:29 31 °F /  -0.6 °C 29 °F /  -1.7 °C 29.82in /  1009.7hPa Calm     92% 0.00in /  0mm 0 W/m2
06:34 31.1 °F /  -0.5 °C 29.1 °F /  -1.6 °C 29.82in /  1009.7hPa Calm     92% 0.00in /  0mm 0 W/m2
06:39 31.1 °F /  -0.5 °C 29.1 °F /  -1.6 °C 29.82in /  1009.7hPa Calm     92% 0.00in /  0mm 0 W/m2
06:44 31.1 °F /  -0.5 °C 29.1 °F /  -1.6 °C 29.82in /  1009.7hPa Calm     92% 0.00in /  0mm 0 W/m2
06:49 31.1 °F /  -0.5 °C 29.1 °F /  -1.6 °C 29.82in /  1009.7hPa Calm     92% 0.00in /  0mm 0 W/m2
06:54 31.1 °F /  -0.5 °C 29.1 °F /  -1.6 °C 29.82in /  1009.7hPa Calm     92% 0.00in /  0mm 0 W/m2
06:59 31.1 °F /  -0.5 °C 29.1 °F /  -1.6 °C 29.82in /  1009.7hPa Calm     92% 0.00in /  0mm 9 W/m2
07:04 31.1 °F /  -0.5 °C 29 °F /  -1.7 °C 29.83in /  1010hPa Calm     92% 0.00in /  0mm 14 W/m2
07:09 31.1 °F /  -0.5 °C 29.1 °F /  -1.6 °C 29.83in /  1010hPa Calm     92.1% 0.00in /  0mm 25 W/m2
07:14 31.1 °F /  -0.5 °C 29.4 °F /  -1.4 °C 29.83in /  1010hPa Calm     93% 0.00in /  0mm 25 W/m2
07:19 31.4 °F /  -0.3 °C 29.6 °F /  -1.3 °C 29.83in /  1010hPa Calm     93% 0.00in /  0mm 18 W/m2
07:24 31.6 °F /  -0.2 °C 29.8 °F /  -1.2 °C 29.83in /  1010hPa Calm     93% 0.00in /  0mm 18 W/m2
07:29 31.8 °F /  -0.1 °C 30 °F /  -1.1 °C 29.83in /  1010hPa Calm     93% 0.00in /  0mm 16 W/m2
07:34 32.1 °F /  0.1 °C 30.3 °F /  -0.9 °C 29.83in /  1010hPa Calm     93% 0.00in /  0mm 23 W/m2
07:39 32.5 °F /  0.3 °C 31 °F /  -0.6 °C 29.83in /  1010hPa Calm     94% 0.00in /  0mm 26 W/m2
07:44 32.8 °F /  0.4 °C 31.3 °F /  -0.4 °C 29.83in /  1010hPa Calm     94% 0.00in /  0mm 37 W/m2
07:49 33.1 °F /  0.6 °C 31.6 °F /  -0.2 °C 29.83in /  1010hPa Calm     94% 0.00in /  0mm 35 W/m2
07:54 33.4 °F /  0.8 °C 31.9 °F /  -0.1 °C 29.83in /  1010hPa Calm     94% 0.00in /  0mm 33 W/m2
07:59 33.7 °F /  0.9 °C 32.2 °F /  0.1 °C 29.83in /  1010hPa Calm     94% 0.00in /  0mm 40 W/m2
08:00 33.8 °F /  1 °C 32.3 °F /  0.2 °C 29.83in /  1010hPa Calm     94% 0.00in /  0mm 67 W/m2
08:09 34.1 °F /  1.2 °C 32.6 °F /  0.3 °C 29.83in /  1010hPa Calm     94% 0.00in /  0mm 167 W/m2
08:14 34.5 °F /  1.4 °C 32.9 °F /  0.5 °C 29.83in /  1010hPa Calm     94% 0.00in /  0mm 139 W/m2
08:19 34.8 °F /  1.6 °C 33.3 °F /  0.7 °C 29.83in /  1010hPa Calm     94% 0.00in /  0mm 86 W/m2
08:24 35.1 °F /  1.7 °C 33.5 °F /  0.8 °C 29.83in /  1010hPa Calm     94% 0.00in /  0mm 88 W/m2
08:29 35.3 °F /  1.8 °C 33.7 °F /  0.9 °C 29.83in /  1010hPa Calm     94% 0.00in /  0mm 98 W/m2
08:34 35.5 °F /  1.9 °C 34 °F /  1.1 °C 29.83in /  1010hPa Calm     94% 0.00in /  0mm 102 W/m2
08:39 35.8 °F /  2.1 °C 34.2 °F /  1.2 °C 29.83in /  1010hPa Calm     94% 0.00in /  0mm 120 W/m2
08:43 36.1 °F /  2.3 °C 34.5 °F /  1.4 °C 29.83in /  1010hPa Calm     94% 0.00in /  0mm 190 W/m2
08:49 36.7 °F /  2.6 °C 35.2 °F /  1.8 °C 29.83in /  1010hPa Calm     94% 0.00in /  0mm 380 W/m2
08:54 37.6 °F /  3.1 °C 36.3 °F /  2.4 °C 29.83in /  1010hPa Calm     94.8% 0.00in /  0mm 378 W/m2
08:59 38.4 °F /  3.6 °C 37.1 °F /  2.8 °C 29.83in /  1010hPa South 0.1mph /  0.2km/h 2mph /  3.2km/h 94.9% 0.00in /  0mm 163 W/m2
09:04 38.7 °F /  3.7 °C 37.2 °F /  2.9 °C 29.83in /  1010hPa Calm   2mph /  3.2km/h 93.9% 0.00in /  0mm 250 W/m2
09:09 39 °F /  3.9 °C 37.1 °F /  2.8 °C 29.83in /  1010hPa Calm     93% 0.00in /  0mm 457 W/m2
09:14 39.5 °F /  4.2 °C 37.5 °F /  3.1 °C 29.83in /  1010hPa Calm     92.6% 0.00in /  0mm 457 W/m2
09:19 40 °F /  4.4 °C 37.8 °F /  3.2 °C 29.83in /  1010hPa Calm     91.8% 0.00in /  0mm 304 W/m2
09:24 40.5 °F /  4.7 °C 38.1 °F /  3.4 °C 29.83in /  1010hPa Calm     91% 0.00in /  0mm 225 W/m2
09:29 40.9 °F /  4.9 °C 38.2 °F /  3.4 °C 29.83in /  1010hPa Calm     89.9% 0.00in /  0mm 394 W/m2
09:34 41.4 °F /  5.2 °C 38.4 °F /  3.6 °C 29.82in /  1009.7hPa South 0.2mph /  0.3km/h 2mph /  3.2km/h 89% 0.00in /  0mm 406 W/m2
09:39 42 °F /  5.6 °C 38.8 °F /  3.8 °C 29.82in /  1009.7hPa South 0.3mph /  0.5km/h 2mph /  3.2km/h 88.2% 0.00in /  0mm 434 W/m2
09:44 42.6 °F /  5.9 °C 39.1 °F /  3.9 °C 29.81in /  1009.4hPa Calm   2mph /  3.2km/h 87.3% 0.00in /  0mm 431 W/m2
09:49 43.1 °F /  6.2 °C 39.3 °F /  4.1 °C 29.81in /  1009.4hPa South 0.1mph /  0.2km/h 2mph /  3.2km/h 86.2% 0.00in /  0mm 438 W/m2
09:54 43.8 °F /  6.6 °C 39.7 °F /  4.3 °C 29.81in /  1009.4hPa Calm   2mph /  3.2km/h 85.4% 0.00in /  0mm 438 W/m2
09:59 44.4 °F /  6.9 °C 39.9 °F /  4.4 °C 29.81in /  1009.4hPa Calm   2mph /  3.2km/h 84.2% 0.00in /  0mm 492 W/m2
10:04 44.9 °F /  7.2 °C 40.1 °F /  4.5 °C 29.81in /  1009.4hPa Calm   2mph /  3.2km/h 83% 0.00in /  0mm 489 W/m2
10:09 45.6 °F /  7.6 °C 40.3 °F /  4.6 °C 29.81in /  1009.4hPa Calm     81.6% 0.00in /  0mm 494 W/m2
10:14 46.4 °F /  8 °C 40.8 °F /  4.9 °C 29.80in /  1009hPa South 0.5mph /  0.8km/h 3mph /  4.8km/h 80.7% 0.00in /  0mm 506 W/m2
10:19 47.1 °F /  8.4 °C 40.8 °F /  4.9 °C 29.80in /  1009hPa SSW 1.5mph /  2.4km/h 5mph /  8km/h 78.6% 0.00in /  0mm 510 W/m2
10:24 47.7 °F /  8.7 °C 40.9 °F /  4.9 °C 29.80in /  1009hPa SSW 1.2mph /  1.9km/h 5mph /  8km/h 77.3% 0.00in /  0mm 510 W/m2
10:29 48.2 °F /  9 °C 41.1 °F /  5.1 °C 29.80in /  1009hPa SSW 0.2mph /  0.3km/h 5mph /  8km/h 76.1% 0.00in /  0mm 520 W/m2
10:34 48.9 °F /  9.4 °C 41.4 °F /  5.2 °C 29.80in /  1009hPa Calm   5mph /  8km/h 75.1% 0.00in /  0mm 531 W/m2
10:39 49.5 °F /  9.7 °C 41.3 °F /  5.2 °C 29.80in /  1009hPa SSW 0.8mph /  1.3km/h 4mph /  6.4km/h 73.3% 0.00in /  0mm 545 W/m2
10:44 50 °F /  10 °C 41 °F /  5 °C 29.79in /  1008.7hPa SSW 1.3mph /  2.1km/h 4mph /  6.4km/h 71% 0.00in /  0mm 552 W/m2
10:49 50.5 °F /  10.3 °C 40.4 °F /  4.7 °C 29.79in /  1008.7hPa SSW 3.2mph /  5.1km/h 9mph /  14.5km/h 68% 0.00in /  0mm 559 W/m2
10:54 50.9 °F /  10.5 °C 40.4 °F /  4.7 °C 29.79in /  1008.7hPa SW 2.9mph /  4.7km/h 9mph /  14.5km/h 67% 0.00in /  0mm 561 W/m2
10:59 51.3 °F /  10.7 °C 40.4 °F /  4.7 °C 29.79in /  1008.7hPa SW 0.9mph /  1.4km/h 9mph /  14.5km/h 66% 0.00in /  0mm 566 W/m2
11:04 51.7 °F /  10.9 °C 40.7 °F /  4.8 °C 29.78in /  1008.4hPa SW 0.3mph /  0.5km/h 9mph /  14.5km/h 66% 0.00in /  0mm 575 W/m2
11:09 52.4 °F /  11.3 °C 41.1 °F /  5.1 °C 29.78in /  1008.4hPa SW 0.5mph /  0.8km/h 3mph /  4.8km/h 65.3% 0.00in /  0mm 585 W/m2
11:14 53.1 °F /  11.7 °C 41.1 °F /  5.1 °C 29.78in /  1008.4hPa SW 1mph /  1.6km/h 5mph /  8km/h 63.6% 0.00in /  0mm 587 W/m2
11:19 53.5 °F /  11.9 °C 40.5 °F /  4.7 °C 29.78in /  1008.4hPa SW 1.8mph /  2.9km/h 7mph /  11.3km/h 61.4% 0.00in /  0mm 425 W/m2
11:24 53.3 °F /  11.8 °C 39.6 °F /  4.2 °C 29.77in /  1008hPa SW 3.3mph /  5.3km/h 10mph /  16.1km/h 59.6% 0.00in /  0mm 385 W/m2
11:29 53 °F /  11.7 °C 39.5 °F /  4.2 °C 29.77in /  1008hPa SW 4mph /  6.4km/h 10mph /  16.1km/h 60% 0.00in /  0mm 146 W/m2
11:34 52.8 °F /  11.6 °C 39.1 °F /  3.9 °C 29.77in /  1008hPa SW 4.1mph /  6.6km/h 11mph /  17.7km/h 59.5% 0.00in /  0mm 258 W/m2
11:39 52.5 °F /  11.4 °C 38.9 °F /  3.8 °C 29.77in /  1008hPa SW 3.3mph /  5.3km/h 11mph /  17.7km/h 59.6% 0.00in /  0mm 332 W/m2
11:44 52.6 °F /  11.4 °C 39.5 °F /  4.2 °C 29.77in /  1008hPa SW 2.1mph /  3.4km/h 11mph /  17.7km/h 60.9% 0.00in /  0mm 332 W/m2
11:49 53 °F /  11.7 °C 39.4 °F /  4.1 °C 29.76in /  1007.7hPa SW 4.2mph /  6.8km/h 12mph /  19.3km/h 59.8% 0.00in /  0mm 211 W/m2
11:54 53.3 °F /  11.8 °C 39.4 °F /  4.1 °C 29.76in /  1007.7hPa SW 2.8mph /  4.5km/h 12mph /  19.3km/h 59.2% 0.00in /  0mm 288 W/m2
11:59 53.4 °F /  11.9 °C 39.1 °F /  3.9 °C 29.76in /  1007.7hPa West 4.1mph /  6.6km/h 12mph /  19.3km/h 58.2% 0.00in /  0mm 292 W/m2
12:09 53 °F /  11.7 °C 38.3 °F /  3.5 °C 29.76in /  1007.7hPa WSW 1.3mph /  2.1km/h 15mph /  24.1km/h 57.1% 0.00in /  0mm 188 W/m2
12:14 52.8 °F /  11.6 °C 38.7 °F /  3.7 °C 29.75in /  1007.3hPa WSW 3mph /  4.8km/h 15mph /  24.1km/h 58.5% 0.00in /  0mm 220 W/m2
12:19 52.7 °F /  11.5 °C 37.9 °F /  3.3 °C 29.75in /  1007.3hPa SW 3.8mph /  6.1km/h 16mph /  25.7km/h 57% 0.00in /  0mm 186 W/m2
12:24 52.4 °F /  11.3 °C 37.1 °F /  2.8 °C 29.75in /  1007.3hPa SW 3.3mph /  5.3km/h 16mph /  25.7km/h 55.9% 0.00in /  0mm 309 W/m2
12:29 52.4 °F /  11.3 °C 37.5 °F /  3.1 °C 29.74in /  1007hPa SW 2.7mph /  4.3km/h 16mph /  25.7km/h 56.7% 0.00in /  0mm 624 W/m2
12:34 52.6 °F /  11.4 °C 36.6 °F /  2.6 °C 29.74in /  1007hPa WSW 5mph /  8km/h 16mph /  25.7km/h 54.4% 0.00in /  0mm 555 W/m2
12:39 52.7 °F /  11.5 °C 36.7 °F /  2.6 °C 29.74in /  1007hPa WSW 3mph /  4.8km/h 15mph /  24.1km/h 54.3% 0.00in /  0mm 452 W/m2
12:44 52.8 °F /  11.6 °C 36.1 °F /  2.3 °C 29.73in /  1006.7hPa WSW 4mph /  6.4km/h 15mph /  24.1km/h 52.8% 0.00in /  0mm 169 W/m2
12:49 52.5 °F /  11.4 °C 34.7 °F /  1.5 °C 29.73in /  1006.7hPa WSW 4.8mph /  7.7km/h 15mph /  24.1km/h 50.7% 0.00in /  0mm 171 W/m2
12:54 52 °F /  11.1 °C 34.7 °F /  1.5 °C 29.73in /  1006.7hPa SW 1.1mph /  1.8km/h 15mph /  24.1km/h 51.4% 0.00in /  0mm 221 W/m2
12:59 51.9 °F /  11.1 °C 35 °F /  1.7 °C 29.73in /  1006.7hPa SW 1.6mph /  2.6km/h 15mph /  24.1km/h 52.5% 0.00in /  0mm 251 W/m2
13:04 51.8 °F /  11 °C 34.5 °F /  1.4 °C 29.73in /  1006.7hPa SW 2.3mph /  3.7km/h 15mph /  24.1km/h 51.5% 0.00in /  0mm 251 W/m2
13:09 52 °F /  11.1 °C 34.5 °F /  1.4 °C 29.73in /  1006.7hPa SW 3.3mph /  5.3km/h 13mph /  20.9km/h 51.1% 0.00in /  0mm 329 W/m2
13:14 52.4 °F /  11.3 °C 34.8 °F /  1.6 °C 29.73in /  1006.7hPa SW 4.7mph /  7.6km/h 13mph /  20.9km/h 51% 0.00in /  0mm 411 W/m2
13:19 52.7 °F /  11.5 °C 34.6 °F /  1.4 °C 29.72in /  1006.3hPa SW 3.3mph /  5.3km/h 13mph /  20.9km/h 50% 0.00in /  0mm 195 W/m2
13:24 52.9 °F /  11.6 °C 34.7 °F /  1.5 °C 29.72in /  1006.3hPa SW 3.8mph /  6.1km/h 13mph /  20.9km/h 49.8% 0.00in /  0mm 193 W/m2
13:29 53 °F /  11.7 °C 35.1 °F /  1.7 °C 29.72in /  1006.3hPa WSW 1.4mph /  2.3km/h 13mph /  20.9km/h 50.5% 0.00in /  0mm 186 W/m2
13:34 52.9 °F /  11.6 °C 34.2 °F /  1.2 °C 29.72in /  1006.3hPa SW 3.7mph /  6km/h 13mph /  20.9km/h 48.7% 0.00in /  0mm 186 W/m2
13:39 52.5 °F /  11.4 °C 32.9 °F /  0.5 °C 29.72in /  1006.3hPa SW 4.9mph /  7.9km/h 14mph /  22.5km/h 47.1% 0.00in /  0mm 141 W/m2
13:44 52.1 °F /  11.2 °C 33.1 °F /  0.6 °C 29.72in /  1006.3hPa WSW 2.5mph /  4km/h 14mph /  22.5km/h 48.2% 0.00in /  0mm 130 W/m2
13:49 51.7 °F /  10.9 °C 31.9 °F /  -0.1 °C 29.73in /  1006.7hPa WSW 5.6mph /  9km/h 17mph /  27.4km/h 46.6% 0.00in /  0mm 125 W/m2
13:54 51.3 °F /  10.7 °C 31.2 °F /  -0.4 °C 29.73in /  1006.7hPa WSW 3.9mph /  6.3km/h 17mph /  27.4km/h 46% 0.00in /  0mm 137 W/m2
13:59 50.9 °F /  10.5 °C 31 °F /  -0.6 °C 29.73in /  1006.7hPa West 4mph /  6.4km/h 17mph /  27.4km/h 46.2% 0.00in /  0mm 135 W/m2
14:04 50.7 °F /  10.4 °C 31.2 °F /  -0.4 °C 29.73in /  1006.7hPa WSW 3.1mph /  5km/h 17mph /  27.4km/h 46.9% 0.00in /  0mm 153 W/m2
14:09 50.7 °F /  10.4 °C 31.3 °F /  -0.4 °C 29.73in /  1006.7hPa WSW 3.8mph /  6.1km/h 13mph /  20.9km/h 47.1% 0.00in /  0mm 202 W/m2
14:14 50.8 °F /  10.4 °C 31.3 °F /  -0.4 °C 29.73in /  1006.7hPa WSW 2.8mph /  4.5km/h 13mph /  20.9km/h 47.1% 0.00in /  0mm 139 W/m2
14:19 50.8 °F /  10.4 °C 30.8 °F /  -0.7 °C 29.73in /  1006.7hPa SW 2.8mph /  4.5km/h 13mph /  20.9km/h 45.9% 0.00in /  0mm 172 W/m2
14:24 51 °F /  10.6 °C 30.4 °F /  -0.9 °C 29.73in /  1006.7hPa SW 1.1mph /  1.8km/h 13mph /  20.9km/h 45.1% 0.00in /  0mm 149 W/m2
14:29 51.2 °F /  10.7 °C 31 °F /  -0.6 °C 29.73in /  1006.7hPa SW 0.9mph /  1.4km/h 13mph /  20.9km/h 45.8% 0.00in /  0mm 183 W/m2
14:34 51.4 °F /  10.8 °C 30.7 °F /  -0.7 °C 29.73in /  1006.7hPa SW 2.6mph /  4.2km/h 13mph /  20.9km/h 44.9% 0.00in /  0mm 229 W/m2
14:39 51.7 °F /  10.9 °C 30.3 °F /  -0.9 °C 29.74in /  1007hPa WSW 2.6mph /  4.2km/h 11mph /  17.7km/h 43.6% 0.00in /  0mm 192 W/m2
14:44 51.6 °F /  10.9 °C 30 °F /  -1.1 °C 29.74in /  1007hPa WSW 2.2mph /  3.5km/h 11mph /  17.7km/h 43.4% 0.00in /  0mm 120 W/m2
14:49 51.3 °F /  10.7 °C 29.9 °F /  -1.2 °C 29.74in /  1007hPa WSW 3.4mph /  5.5km/h 13mph /  20.9km/h 43.6% 0.00in /  0mm 148 W/m2
14:54 51.1 °F /  10.6 °C 30.1 °F /  -1.1 °C 29.74in /  1007hPa SW 1.1mph /  1.8km/h 13mph /  20.9km/h 44.1% 0.00in /  0mm 104 W/m2
14:59 51 °F /  10.6 °C 30.1 °F /  -1.1 °C 29.75in /  1007.3hPa WSW 1.9mph /  3.1km/h 13mph /  20.9km/h 44.3% 0.00in /  0mm 84 W/m2
15:04 50.7 °F /  10.4 °C 30 °F /  -1.1 °C 29.75in /  1007.3hPa WSW 1.4mph /  2.3km/h 13mph /  20.9km/h 44.7% 0.00in /  0mm 77 W/m2
15:09 50.4 °F /  10.2 °C 30.3 °F /  -0.9 °C 29.76in /  1007.7hPa West 3mph /  4.8km/h 19mph /  30.6km/h 45.8% 0.00in /  0mm 102 W/m2
15:14 50.1 °F /  10.1 °C 30.6 °F /  -0.8 °C 29.76in /  1007.7hPa West 8.7mph /  14km/h 21mph /  33.8km/h 47% 0.00in /  0mm 123 W/m2
15:19 49.9 °F /  9.9 °C 31.3 °F /  -0.4 °C 29.77in /  1008hPa West 3.3mph /  5.3km/h 21mph /  33.8km/h 48.6% 0.00in /  0mm 123 W/m2
15:24 50 °F /  10 °C 32.1 °F /  0.1 °C 29.77in /  1008hPa WNW 3.6mph /  5.8km/h 21mph /  33.8km/h 50% 0.00in /  0mm 49 W/m2
15:29 50 °F /  10 °C 32.1 °F /  0.1 °C 29.77in /  1008hPa West 4.6mph /  7.4km/h 21mph /  33.8km/h 50% 0.00in /  0mm 33 W/m2
15:34 49.9 °F /  9.9 °C 32 °F /  0 °C 29.77in /  1008hPa WNW 4.7mph /  7.6km/h 21mph /  33.8km/h 50% 0.00in /  0mm 40 W/m2
15:39 49.7 °F /  9.8 °C 31.9 °F /  -0.1 °C 29.77in /  1008hPa West 3.6mph /  5.8km/h 15mph /  24.1km/h 50.2% 0.00in /  0mm 40 W/m2
15:44 49.6 °F /  9.8 °C 32 °F /  0 °C 29.77in /  1008hPa WSW 3.8mph /  6.1km/h 15mph /  24.1km/h 50.5% 0.00in /  0mm 37 W/m2
15:49 49.5 °F /  9.7 °C 32.1 °F /  0.1 °C 29.77in /  1008hPa West 1.8mph /  2.9km/h 15mph /  24.1km/h 51% 0.00in /  0mm 30 W/m2
15:54 49.4 °F /  9.7 °C 32 °F /  0 °C 29.77in /  1008hPa WSW 1.2mph /  1.9km/h 15mph /  24.1km/h 51% 0.00in /  0mm 28 W/m2
15:59 49.2 °F /  9.6 °C 31.5 °F /  -0.3 °C 29.77in /  1008hPa WSW 2.2mph /  3.5km/h 15mph /  24.1km/h 50.3% 0.00in /  0mm 28 W/m2
16:09 48.8 °F /  9.3 °C 31 °F /  -0.6 °C 29.78in /  1008.4hPa West 2.1mph /  3.4km/h 11mph /  17.7km/h 50% 0.00in /  0mm 25 W/m2
16:14 48.8 °F /  9.3 °C 31 °F /  -0.6 °C 29.78in /  1008.4hPa SW 2.2mph /  3.5km/h 11mph /  17.7km/h 50% 0.00in /  0mm 25 W/m2
16:19 48.7 °F /  9.3 °C 30.9 °F /  -0.6 °C 29.78in /  1008.4hPa WSW 0.7mph /  1.1km/h 11mph /  17.7km/h 50% 0.00in /  0mm 23 W/m2
16:24 48.6 °F /  9.2 °C 30.9 °F /  -0.6 °C 29.78in /  1008.4hPa WSW 1.5mph /  2.4km/h 11mph /  17.7km/h 50% 0.00in /  0mm 23 W/m2
16:29 48.5 °F /  9.2 °C 30.7 °F /  -0.7 °C 29.78in /  1008.4hPa WSW 1.6mph /  2.6km/h 11mph /  17.7km/h 50% 0.00in /  0mm 21 W/m2
16:34 48.3 °F /  9.1 °C 30.7 °F /  -0.7 °C 29.79in /  1008.7hPa WSW 0.7mph /  1.1km/h 11mph /  17.7km/h 50.2% 0.00in /  0mm 21 W/m2
16:39 48.2 °F /  9 °C 30.7 °F /  -0.7 °C 29.79in /  1008.7hPa WSW 1.3mph /  2.1km/h 9mph /  14.5km/h 50.6% 0.00in /  0mm 21 W/m2
16:44 48 °F /  8.9 °C 30.2 °F /  -1 °C 29.79in /  1008.7hPa WSW 2.6mph /  4.2km/h 12mph /  19.3km/h 50% 0.00in /  0mm 18 W/m2
16:49 47.8 °F /  8.8 °C 30.2 °F /  -1 °C 29.79in /  1008.7hPa WSW 3.2mph /  5.1km/h 13mph /  20.9km/h 50.1% 0.00in /  0mm 16 W/m2
16:54 47.7 °F /  8.7 °C 30.1 °F /  -1.1 °C 29.79in /  1008.7hPa West 0.8mph /  1.3km/h 13mph /  20.9km/h 50.3% 0.00in /  0mm 12 W/m2
16:59 47.4 °F /  8.6 °C 30.2 °F /  -1 °C 29.79in /  1008.7hPa WSW 2mph /  3.2km/h 13mph /  20.9km/h 51% 0.00in /  0mm 11 W/m2
17:04 47.2 °F /  8.4 °C 30 °F /  -1.1 °C 29.79in /  1008.7hPa West 0.2mph /  0.3km/h 13mph /  20.9km/h 51% 0.00in /  0mm 7 W/m2
17:09 46.9 °F /  8.3 °C 29.8 °F /  -1.2 °C 29.80in /  1009hPa SW 0.9mph /  1.4km/h 9mph /  14.5km/h 51% 0.00in /  0mm 9 W/m2
17:14 46.7 °F /  8.2 °C 29.9 °F /  -1.2 °C 29.80in /  1009hPa WSW 2.4mph /  3.9km/h 11mph /  17.7km/h 51.6% 0.00in /  0mm 9 W/m2
17:19 46.7 °F /  8.2 °C 29.5 °F /  -1.4 °C 29.80in /  1009hPa WSW 2.9mph /  4.7km/h 12mph /  19.3km/h 51% 0.00in /  0mm 0 W/m2
17:24 46.6 °F /  8.1 °C 29.4 °F /  -1.4 °C 29.80in /  1009hPa West 2mph /  3.2km/h 15mph /  24.1km/h 51% 0.00in /  0mm 0 W/m2
17:29 46.4 °F /  8 °C 29.4 °F /  -1.4 °C 29.80in /  1009hPa West 2.9mph /  4.7km/h 15mph /  24.1km/h 51.1% 0.00in /  0mm 0 W/m2
17:34 46.3 °F /  7.9 °C 29.4 °F /  -1.4 °C 29.80in /  1009hPa WSW 0.8mph /  1.3km/h 15mph /  24.1km/h 51.5% 0.00in /  0mm 0 W/m2
17:39 46.2 °F /  7.9 °C 29.5 °F /  -1.4 °C 29.81in /  1009.4hPa West 0.2mph /  0.3km/h 7mph /  11.3km/h 52% 0.00in /  0mm 0 W/m2
17:44 45.9 °F /  7.7 °C 29.4 °F /  -1.4 °C 29.81in /  1009.4hPa WNW 0.9mph /  1.4km/h 11mph /  17.7km/h 52.2% 0.00in /  0mm 0 W/m2
17:49 45.7 °F /  7.6 °C 29.9 °F /  -1.2 °C 29.81in /  1009.4hPa West 1.2mph /  1.9km/h 11mph /  17.7km/h 53.7% 0.00in /  0mm 0 W/m2
17:54 45.4 °F /  7.4 °C 30 °F /  -1.1 °C 29.81in /  1009.4hPa West 0.1mph /  0.2km/h 11mph /  17.7km/h 54.5% 0.00in /  0mm 0 W/m2
17:59 45.2 °F /  7.3 °C 30.2 °F /  -1 °C 29.81in /  1009.4hPa WSW 0.4mph /  0.6km/h 11mph /  17.7km/h 55.3% 0.00in /  0mm 0 W/m2
18:04 45.1 °F /  7.3 °C 30.3 °F /  -0.9 °C 29.82in /  1009.7hPa West 0.1mph /  0.2km/h 11mph /  17.7km/h 56% 0.00in /  0mm 0 W/m2
18:09 44.9 °F /  7.2 °C 30.6 °F /  -0.8 °C 29.82in /  1009.7hPa Calm   2mph /  3.2km/h 56.9% 0.00in /  0mm 0 W/m2
18:14 44.7 °F /  7.1 °C 30.5 °F /  -0.8 °C 29.82in /  1009.7hPa Calm   2mph /  3.2km/h 57.2% 0.00in /  0mm 0 W/m2
18:19 44.5 °F /  6.9 °C 30.7 °F /  -0.7 °C 29.83in /  1010hPa Calm   2mph /  3.2km/h 58% 0.00in /  0mm 0 W/m2
18:24 44.3 °F /  6.8 °C 30.5 °F /  -0.8 °C 29.83in /  1010hPa Calm   2mph /  3.2km/h 58% 0.00in /  0mm 0 W/m2
18:29 44.1 °F /  6.7 °C 30.4 °F /  -0.9 °C 29.83in /  1010hPa WSW 0.4mph /  0.6km/h 6mph /  9.7km/h 58.2% 0.00in /  0mm 0 W/m2
18:34 44 °F /  6.7 °C 30.6 °F /  -0.8 °C 29.84in /  1010.4hPa Calm   6mph /  9.7km/h 59% 0.00in /  0mm 0 W/m2
18:39 43.8 °F /  6.6 °C 30.7 °F /  -0.7 °C 29.84in /  1010.4hPa Calm   1mph /  1.6km/h 59.6% 0.00in /  0mm 0 W/m2
18:44 43.6 °F /  6.4 °C 30.6 °F /  -0.8 °C 29.84in /  1010.4hPa WSW 0.1mph /  0.2km/h 1mph /  1.6km/h 60% 0.00in /  0mm 0 W/m2
18:49 43.4 °F /  6.3 °C 30.5 °F /  -0.8 °C 29.84in /  1010.4hPa Calm   1mph /  1.6km/h 60% 0.00in /  0mm 0 W/m2
18:54 43.3 °F /  6.3 °C 30.5 °F /  -0.8 °C 29.84in /  1010.4hPa Calm   1mph /  1.6km/h 60.4% 0.00in /  0mm 0 W/m2
18:59 43.1 °F /  6.2 °C 30.6 °F /  -0.8 °C 29.85in /  1010.7hPa Calm   1mph /  1.6km/h 61% 0.00in /  0mm 0 W/m2
19:04 42.9 °F /  6.1 °C 30.6 °F /  -0.8 °C 29.85in /  1010.7hPa SW 0.1mph /  0.2km/h 1mph /  1.6km/h 61.5% 0.00in /  0mm 0 W/m2
19:09 42.7 °F /  5.9 °C 30.6 °F /  -0.8 °C 29.85in /  1010.7hPa Calm   1mph /  1.6km/h 62% 0.00in /  0mm 0 W/m2
19:14 42.6 °F /  5.9 °C 30.9 °F /  -0.6 °C 29.86in /  1011.1hPa SW 0.1mph /  0.2km/h 1mph /  1.6km/h 63% 0.00in /  0mm 0 W/m2
19:19 42.5 °F /  5.8 °C 31 °F /  -0.6 °C 29.85in /  1010.7hPa Calm   1mph /  1.6km/h 63.6% 0.00in /  0mm 0 W/m2
19:24 42.4 °F /  5.8 °C 31.1 °F /  -0.5 °C 29.86in /  1011.1hPa Calm   1mph /  1.6km/h 64% 0.00in /  0mm 0 W/m2
19:29 42.4 °F /  5.8 °C 31.1 °F /  -0.5 °C 29.86in /  1011.1hPa Calm   1mph /  1.6km/h 64% 0.00in /  0mm 0 W/m2
19:34 42.3 °F /  5.7 °C 31 °F /  -0.6 °C 29.86in /  1011.1hPa Calm   1mph /  1.6km/h 64% 0.00in /  0mm 0 W/m2
19:39 42.2 °F /  5.7 °C 31.1 °F /  -0.5 °C 29.86in /  1011.1hPa Calm   1mph /  1.6km/h 64.5% 0.00in /  0mm 0 W/m2
19:44 42.2 °F /  5.7 °C 31.2 °F /  -0.4 °C 29.86in /  1011.1hPa Calm   1mph /  1.6km/h 65% 0.00in /  0mm 0 W/m2
19:49 42.1 °F /  5.6 °C 31.2 °F /  -0.4 °C 29.86in /  1011.1hPa Calm   1mph /  1.6km/h 65% 0.00in /  0mm 0 W/m2
19:54 42 °F /  5.6 °C 31.1 °F /  -0.5 °C 29.87in /  1011.4hPa Calm   1mph /  1.6km/h 65% 0.00in /  0mm 0 W/m2
19:59 41.9 °F /  5.5 °C 31.3 °F /  -0.4 °C 29.87in /  1011.4hPa Calm   1mph /  1.6km/h 65.7% 0.00in /  0mm 0 W/m2
20:09 41.6 °F /  5.3 °C 31.1 °F /  -0.5 °C 29.88in /  1011.7hPa Calm     66% 0.00in /  0mm 0 W/m2
20:14 41.4 °F /  5.2 °C 30.9 °F /  -0.6 °C 29.88in /  1011.7hPa Calm     66% 0.00in /  0mm 0 W/m2
20:19 41.2 °F /  5.1 °C 30.8 °F /  -0.7 °C 29.88in /  1011.7hPa Calm     66% 0.00in /  0mm 0 W/m2
20:24 41 °F /  5 °C 30.7 °F /  -0.7 °C 29.89in /  1012.1hPa Calm     66.4% 0.00in /  0mm 0 W/m2
20:29 40.8 °F /  4.9 °C 30.7 °F /  -0.7 °C 29.89in /  1012.1hPa Calm     67% 0.00in /  0mm 0 W/m2
20:34 40.6 °F /  4.8 °C 30.5 °F /  -0.8 °C 29.89in /  1012.1hPa Calm     67% 0.00in /  0mm 0 W/m2
20:39 40.5 °F /  4.7 °C 30.7 °F /  -0.7 °C 29.89in /  1012.1hPa Calm     67.9% 0.00in /  0mm 0 W/m2
20:44 40.2 °F /  4.6 °C 30.5 °F /  -0.8 °C 29.90in /  1012.4hPa Calm   1mph /  1.6km/h 68% 0.00in /  0mm 0 W/m2
20:49 40 °F /  4.4 °C 30.6 °F /  -0.8 °C 29.90in /  1012.4hPa Calm   1mph /  1.6km/h 68.8% 0.00in /  0mm 0 W/m2
20:54 39.8 °F /  4.3 °C 30.4 °F /  -0.9 °C 29.90in /  1012.4hPa Calm   1mph /  1.6km/h 69% 0.00in /  0mm 0 W/m2
20:59 39.6 °F /  4.2 °C 30.2 °F /  -1 °C 29.91in /  1012.8hPa Calm   1mph /  1.6km/h 69% 0.00in /  0mm 0 W/m2
21:04 39.4 °F /  4.1 °C 30.4 °F /  -0.9 °C 29.91in /  1012.8hPa Calm   1mph /  1.6km/h 69.9% 0.00in /  0mm 0 W/m2
21:09 39.1 °F /  3.9 °C 30.2 °F /  -1 °C 29.91in /  1012.8hPa Calm   1mph /  1.6km/h 70% 0.00in /  0mm 0 W/m2
21:14 38.9 °F /  3.8 °C 30.1 °F /  -1.1 °C 29.91in /  1012.8hPa Calm   1mph /  1.6km/h 70.4% 0.00in /  0mm 0 W/m2
21:19 38.7 °F /  3.7 °C 30.1 °F /  -1.1 °C 29.91in /  1012.8hPa Calm   1mph /  1.6km/h 71% 0.00in /  0mm 0 W/m2
21:24 38.6 °F /  3.7 °C 30 °F /  -1.1 °C 29.91in /  1012.8hPa Calm   1mph /  1.6km/h 71.1% 0.00in /  0mm 0 W/m2
21:29 38.4 °F /  3.6 °C 30.2 °F /  -1 °C 29.91in /  1012.8hPa Calm   1mph /  1.6km/h 72% 0.00in /  0mm 0 W/m2
21:34 38.3 °F /  3.5 °C 30 °F /  -1.1 °C 29.91in /  1012.8hPa WSW 0.1mph /  0.2km/h 2mph /  3.2km/h 72% 0.00in /  0mm 0 W/m2
21:39 38.2 °F /  3.4 °C 30.3 °F /  -0.9 °C 29.91in /  1012.8hPa Calm   2mph /  3.2km/h 72.9% 0.00in /  0mm 0 W/m2
21:44 38.1 °F /  3.4 °C 30.2 °F /  -1 °C 29.91in /  1012.8hPa Calm   2mph /  3.2km/h 73% 0.00in /  0mm 0 W/m2
21:49 38.1 °F /  3.4 °C 30.2 °F /  -1 °C 29.91in /  1012.8hPa Calm   2mph /  3.2km/h 73% 0.00in /  0mm 0 W/m2
21:54 38.1 °F /  3.4 °C 30.2 °F /  -1 °C 29.91in /  1012.8hPa Calm   2mph /  3.2km/h 73% 0.00in /  0mm 0 W/m2
21:59 38 °F /  3.3 °C 30.1 °F /  -1.1 °C 29.91in /  1012.8hPa Calm   2mph /  3.2km/h 73% 0.00in /  0mm 0 W/m2
22:04 38 °F /  3.3 °C 30.1 °F /  -1.1 °C 29.91in /  1012.8hPa Calm   2mph /  3.2km/h 73% 0.00in /  0mm 0 W/m2
22:09 37.9 °F /  3.3 °C 30 °F /  -1.1 °C 29.92in /  1013.1hPa Calm     73% 0.00in /  0mm 0 W/m2
22:14 37.8 °F /  3.2 °C 29.9 °F /  -1.2 °C 29.92in /  1013.1hPa Calm     73% 0.00in /  0mm 0 W/m2
22:19 37.6 °F /  3.1 °C 30.1 °F /  -1.1 °C 29.91in /  1012.8hPa Calm     74% 0.00in /  0mm 0 W/m2
22:24 37.4 °F /  3 °C 29.9 °F /  -1.2 °C 29.92in /  1013.1hPa Calm     74% 0.00in /  0mm 0 W/m2
22:29 37.3 °F /  2.9 °C 29.8 °F /  -1.2 °C 29.92in /  1013.1hPa Calm     74% 0.00in /  0mm 0 W/m2
22:34 37.1 °F /  2.8 °C 29.6 °F /  -1.3 °C 29.92in /  1013.1hPa Calm     74% 0.00in /  0mm 0 W/m2
22:39 36.9 °F /  2.7 °C 29.4 °F /  -1.4 °C 29.92in /  1013.1hPa Calm     74.1% 0.00in /  0mm 0 W/m2
22:44 36.6 °F /  2.6 °C 29.5 °F /  -1.4 °C 29.92in /  1013.1hPa Calm     75% 0.00in /  0mm 0 W/m2
22:49 36.5 °F /  2.5 °C 29.4 °F /  -1.4 °C 29.92in /  1013.1hPa Calm     75.2% 0.00in /  0mm 0 W/m2
22:54 36.3 °F /  2.4 °C 29.5 °F /  -1.4 °C 29.91in /  1012.8hPa Calm     76% 0.00in /  0mm 0 W/m2
22:59 36.2 °F /  2.3 °C 29.4 °F /  -1.4 °C 29.91in /  1012.8hPa Calm     76.2% 0.00in /  0mm 0 W/m2
23:09 36.2 °F /  2.3 °C 29.7 °F /  -1.3 °C 29.91in /  1012.8hPa Calm     77% 0.00in /  0mm 0 W/m2
23:14 36.2 °F /  2.3 °C 29.7 °F /  -1.3 °C 29.91in /  1012.8hPa Calm     77% 0.00in /  0mm 0 W/m2
23:19 36.2 °F /  2.3 °C 29.7 °F /  -1.3 °C 29.91in /  1012.8hPa Calm     77.1% 0.00in /  0mm 0 W/m2
23:24 36.2 °F /  2.3 °C 30 °F /  -1.1 °C 29.91in /  1012.8hPa Calm     77.8% 0.00in /  0mm 0 W/m2
23:29 36.2 °F /  2.3 °C 29.8 °F /  -1.2 °C 29.91in /  1012.8hPa Calm     77.3% 0.00in /  0mm 0 W/m2
23:34 36 °F /  2.2 °C 29.5 °F /  -1.4 °C 29.90in /  1012.4hPa Calm     77% 0.00in /  0mm 0 W/m2
23:39 35.7 °F /  2.1 °C 29.2 °F /  -1.6 °C 29.90in /  1012.4hPa Calm     77% 0.00in /  0mm 0 W/m2
23:44 35.5 °F /  1.9 °C 29.1 °F /  -1.6 °C 29.90in /  1012.4hPa Calm     77.1% 0.00in /  0mm 0 W/m2
23:49 35.3 °F /  1.8 °C 29.1 °F /  -1.6 °C 29.90in /  1012.4hPa Calm   1mph /  1.6km/h 78% 0.00in /  0mm 0 W/m2
23:54 35 °F /  1.7 °C 28.9 °F /  -1.7 °C 29.90in /  1012.4hPa Calm   1mph /  1.6km/h 78% 0.00in /  0mm 0 W/m2
23:59 34.7 °F /  1.5 °C 28.7 °F /  -1.8 °C 29.90in /  1012.4hPa Calm   1mph /  1.6km/h 78.4% 0.00in /  0mm 0 W/m2
Hartford County Weather
Compliments of Weather Underground - 4 mb